Time;durP1;ratioP1;P1;durP2;ratioP2;P2;SDS_P1;SDS_P2;PMS_P1;PMS_P2;Temp;Humidity;BMP_temperature;BMP_pressure;BME280_temperature;BME280_humidity;BME280_pressure;Samples;Min_cycle;Max_cycle;Signal;HPM_P1;HPM_P2
2023/08/01 00:00:44;;;;;;;0.20;0.20;;;;;;;18.46;90.25;99348.13;5181220;28;20044;-86
2023/08/01 00:03:35;;;;;;;0.20;0.20;;;;;;;18.44;90.74;99344.75;5163116;28;20506;-84
2023/08/01 00:06:25;;;;;;;0.20;0.20;;;;;;;18.43;90.94;99357.22;5180276;28;20038;-86
2023/08/01 00:09:16;;;;;;;0.20;0.20;;;;;;;18.39;90.61;99322.09;5172691;28;20557;-86
2023/08/01 00:12:07;;;;;;;0.20;0.20;;;;;;;18.48;90.17;99277.16;5182981;28;20026;-84
2023/08/01 00:14:58;;;;;;;0.20;0.20;;;;;;;18.48;90.53;99272.69;5182682;28;20022;-85
2023/08/01 00:17:49;;;;;;;0.30;0.30;;;;;;;18.47;90.66;99326.75;5186552;28;20018;-83
2023/08/01 00:20:40;;;;;;;0.20;0.20;;;;;;;18.45;91.18;99335.81;5184496;28;20046;-83
2023/08/01 00:23:31;;;;;;;0.20;0.20;;;;;;;18.36;92.19;99335.63;5199432;28;20041;-85
2023/08/01 00:26:22;;;;;;;0.20;0.20;;;;;;;18.31;92.78;99332.50;5183012;28;20039;-84
2023/08/01 00:29:13;;;;;;;0.20;0.20;;;;;;;18.32;92.90;99328.88;5202179;28;20030;-84
2023/08/01 00:32:04;;;;;;;0.20;0.20;;;;;;;18.31;93.71;99307.75;5198857;28;20022;-84
2023/08/01 00:34:55;;;;;;;0.20;0.20;;;;;;;18.22;94.52;99326.13;5185918;28;20726;-86
2023/08/01 00:37:46;;;;;;;0.20;0.20;;;;;;;18.24;94.62;99300.28;5162327;28;20044;-86
2023/08/01 00:40:36;;;;;;;0.20;0.20;;;;;;;18.22;95.25;99309.34;5188246;28;20026;-84
2023/08/01 00:43:27;;;;;;;0.20;0.20;;;;;;;18.28;94.94;99315.97;5178560;28;20045;-86
2023/08/01 00:46:18;;;;;;;0.63;0.63;;;;;;;18.22;95.32;99304.88;5185008;28;20019;-85
2023/08/01 00:49:09;;;;;;;1.55;0.77;;;;;;;18.23;95.17;99298.59;5200093;28;20065;-86
2023/08/01 00:52:00;;;;;;;0.20;0.20;;;;;;;18.42;93.27;99299.75;5188722;28;20097;-85
2023/08/01 00:54:50;;;;;;;0.25;0.25;;;;;;;18.23;94.62;99290.63;5193966;28;20042;-85
2023/08/01 00:57:42;;;;;;;0.20;0.20;;;;;;;18.25;94.16;99299.31;5195146;28;20014;-85
2023/08/01 01:00:33;;;;;;;0.30;0.30;;;;;;;18.14;94.38;99301.19;5196315;28;20068;-85
2023/08/01 01:03:24;;;;;;;0.20;0.20;;;;;;;18.10;94.99;99297.94;5201969;28;20232;-84
2023/08/01 01:06:24;;;;;;;0.20;0.20;;;;;;;18.06;94.14;99299.13;5198402;28;20040;-85
2023/08/01 01:09:19;;;;;;;0.20;0.20;;;;;;;18.03;94.17;99302.06;5182432;28;20034;-84
2023/08/01 01:12:09;;;;;;;0.20;0.20;;;;;;;18.05;94.00;99297.47;5195824;28;20026;-84
2023/08/01 01:15:00;;;;;;;0.20;0.20;;;;;;;18.12;93.19;99288.03;5212747;28;20033;-85
2023/08/01 01:17:51;;;;;;;0.20;0.20;;;;;;;18.05;93.46;99286.84;5186706;28;20022;-84
2023/08/01 01:20:42;;;;;;;0.20;0.20;;;;;;;18.06;93.27;99283.22;5197175;28;20050;-84
2023/08/01 01:23:33;;;;;;;0.20;0.20;;;;;;;18.06;93.17;99283.22;5187338;28;20049;-84
2023/08/01 01:26:25;;;;;;;0.20;0.20;;;;;;;17.96;94.39;99277.81;5213013;28;20026;-84
2023/08/01 01:29:16;;;;;;;0.20;0.20;;;;;;;17.91;94.17;99274.69;5183458;28;20052;-84
2023/08/01 01:32:07;;;;;;;0.20;0.20;;;;;;;17.81;95.21;99265.75;5182736;28;20032;-84
2023/08/01 01:34:58;;;;;;;0.40;0.40;;;;;;;17.91;94.16;99243.66;5182252;28;20030;-84
2023/08/01 01:37:49;;;;;;;0.20;0.20;;;;;;;17.95;94.10;99244.25;5185497;28;20037;-84
2023/08/01 01:40:40;;;;;;;0.20;0.20;;;;;;;17.92;94.20;99268.41;5190142;28;20030;-84
2023/08/01 01:43:30;;;;;;;0.20;0.20;;;;;;;18.02;92.84;99261.38;5192146;28;20034;-84
2023/08/01 01:46:21;;;;;;;0.20;0.20;;;;;;;17.93;93.98;99270.91;5194311;28;20018;-84
2023/08/01 01:49:12;;;;;;;0.20;0.20;;;;;;;17.78;94.62;99269.50;5188160;28;20026;-84
2023/08/01 01:52:03;;;;;;;0.47;0.47;;;;;;;17.84;94.06;99269.00;5199261;28;20018;-84
2023/08/01 01:54:54;;;;;;;0.20;0.20;;;;;;;17.88;93.06;99274.91;5184392;28;20018;-85
2023/08/01 01:57:44;;;;;;;0.25;0.25;;;;;;;17.82;93.57;99265.63;5185563;28;20032;-84
2023/08/01 02:00:35;;;;;;;0.20;0.20;;;;;;;17.81;92.87;99258.63;5183393;28;20046;-84
2023/08/01 02:03:26;;;;;;;0.28;0.28;;;;;;;17.75;93.14;99259.13;5182433;28;20309;-85
2023/08/01 02:06:17;;;;;;;0.20;0.20;;;;;;;17.77;92.38;99258.03;5200094;28;20041;-84
2023/08/01 02:09:08;;;;;;;0.30;0.30;;;;;;;17.80;92.38;99272.91;5199995;28;20029;-84
2023/08/01 02:11:58;;;;;;;0.25;0.25;;;;;;;17.72;92.76;99260.22;5182000;28;20018;-84
2023/08/01 02:14:49;;;;;;;0.20;0.20;;;;;;;17.80;92.46;99259.63;5196675;28;20130;-86
2023/08/01 02:17:40;;;;;;;0.20;0.20;;;;;;;17.70;92.85;99256.03;5188423;28;20093;-84
2023/08/01 02:20:31;;;;;;;0.20;0.20;;;;;;;17.74;92.19;99245.03;5199178;28;20038;-84
2023/08/01 02:23:22;;;;;;;0.30;0.30;;;;;;;17.73;92.92;99245.16;5194891;28;20013;-83
2023/08/01 02:26:12;;;;;;;0.22;0.22;;;;;;;17.61;93.47;99247.84;5196100;28;20153;-84
2023/08/01 02:29:04;;;;;;;0.20;0.20;;;;;;;17.54;93.91;99251.09;5184060;28;20110;-83
2023/08/01 02:31:56;;;;;;;0.20;0.20;;;;;;;17.72;92.41;99264.72;5185242;28;20086;-83
2023/08/01 02:34:47;;;;;;;0.20;0.20;;;;;;;17.64;92.30;99265.31;5196353;28;20025;-84
2023/08/01 02:37:37;;;;;;;0.30;0.30;;;;;;;17.66;91.97;99270.47;5196819;28;20021;-82
2023/08/01 02:40:28;;;;;;;0.22;0.22;;;;;;;17.60;92.41;99285.94;5193488;28;20053;-83
2023/08/01 02:43:19;;;;;;;0.38;0.38;;;;;;;17.55;92.43;99269.56;5193895;28;20109;-83
2023/08/01 02:46:10;;;;;;;0.30;0.30;;;;;;;17.55;91.89;99272.22;5185663;28;20034;-84
2023/08/01 02:49:01;;;;;;;0.20;0.20;;;;;;;17.67;90.76;99272.16;5163959;28;20117;-85
2023/08/01 02:51:51;;;;;;;0.20;0.20;;;;;;;17.69;90.77;99280.84;5194617;28;20030;-83
2023/08/01 02:54:42;;;;;;;0.30;0.30;;;;;;;17.69;90.06;99286.16;5192500;28;20044;-85
2023/08/01 02:57:33;;;;;;;0.40;0.40;;;;;;;17.63;90.48;99287.50;5162727;28;20026;-85
2023/08/01 03:00:25;;;;;;;8.00;1.58;;;;;;;17.35;92.06;99294.13;5159228;28;20379;-85
2023/08/01 03:03:15;;;;;;;0.30;0.30;;;;;;;17.28;91.52;99299.91;5169335;28;20332;-85
2023/08/01 03:06:07;;;;;;;0.40;0.40;;;;;;;17.39;90.68;99296.41;5166621;28;20084;-85
2023/08/01 03:08:58;;;;;;;0.32;0.32;;;;;;;17.44;89.80;99304.00;5159105;28;20026;-85
2023/08/01 03:11:49;;;;;;;0.30;0.30;;;;;;;17.41;89.24;99299.81;5167599;28;20029;-85
2023/08/01 03:14:43;;;;;;;0.32;0.32;;;;;;;17.25;89.43;99316.03;5154487;28;20536;-84
2023/08/01 03:17:33;;;;;;;;;;;;;;;17.40;88.19;99321.97;5169963;28;20431;-86
2023/08/01 03:20:24;;;;;;;0.50;0.50;;;;;;;17.22;89.06;99328.69;5168446;28;19956;-86
2023/08/01 03:23:15;;;;;;;0.90;0.90;;;;;;;17.29;88.97;99336.06;5151526;28;20444;-86
2023/08/01 03:26:06;;;;;;;1.00;1.00;;;;;;;17.37;87.60;99338.09;5156105;28;20034;-86
2023/08/01 03:28:57;;;;;;;0.38;0.38;;;;;;;17.11;88.65;99340.97;5166912;28;20026;-86
2023/08/01 03:31:48;;;;;;;0.88;0.88;;;;;;;17.18;87.09;99341.34;5174722;28;20026;-85
2023/08/01 03:34:41;;;;;;;0.57;0.57;;;;;;;17.16;87.15;99335.31;5171803;28;20053;-86
2023/08/01 03:37:31;;;;;;;0.85;0.82;;;;;;;17.26;86.33;99341.59;5171451;28;20392;-86
2023/08/01 03:40:23;;;;;;;10.52;2.53;;;;;;;17.11;86.82;99346.25;5174905;28;20425;-84
2023/08/01 03:43:14;;;;;;;5.25;1.25;;;;;;;16.99;86.90;99355.97;5169527;28;20095;-85
2023/08/01 03:46:05;;;;;;;1.02;1.02;;;;;;;17.21;86.12;99346.41;5157131;28;20080;-85
2023/08/01 03:48:55;;;;;;;0.70;0.70;;;;;;;17.19;85.99;99347.50;5173848;28;20030;-85
2023/08/01 03:51:46;;;;;;;0.98;0.98;;;;;;;16.94;85.86;99349.38;5162791;28;20026;-84
2023/08/01 03:54:37;;;;;;;1.27;1.27;;;;;;;16.96;86.33;99358.88;5170145;28;20388;-84
2023/08/01 03:57:28;;;;;;;2.75;1.52;;;;;;;17.09;85.51;99352.66;5170572;28;20125;-85
2023/08/01 04:00:19;;;;;;;1.73;0.95;;;;;;;17.15;85.17;99353.03;5174002;28;20372;-83
2023/08/01 04:03:09;;;;;;;0.30;0.30;;;;;;;16.96;86.27;99358.88;5160921;28;20034;-84
2023/08/01 04:06:00;;;;;;;0.65;0.65;;;;;;;17.04;85.87;99360.09;5165690;28;20045;-84
2023/08/01 04:08:52;;;;;;;0.60;0.60;;;;;;;16.86;86.97;99357.84;5173026;28;20026;-84
2023/08/01 04:11:43;;;;;;;0.45;0.45;;;;;;;16.95;86.32;99356.34;5173109;28;20030;-83
2023/08/01 04:14:34;;;;;;;0.57;0.57;;;;;;;17.11;85.79;99350.72;5183219;28;20046;-84
2023/08/01 04:17:25;;;;;;;0.50;0.45;;;;;;;17.15;85.60;99354.81;5160942;28;20073;-84
2023/08/01 04:20:16;;;;;;;1.10;0.68;;;;;;;17.05;85.80;99345.91;5169138;28;20346;-85
2023/08/01 04:23:07;;;;;;;0.85;0.85;;;;;;;17.04;86.10;99339.75;5161118;28;20058;-84
2023/08/01 04:25:59;;;;;;;0.85;0.85;;;;;;;17.03;86.28;99339.88;5176656;28;20035;-84
2023/08/01 04:28:49;;;;;;;0.30;0.30;;;;;;;16.91;86.86;99347.75;5170713;28;20512;-84
2023/08/01 04:31:40;;;;;;;1.15;0.90;;;;;;;16.98;86.28;99351.66;5169946;28;20088;-84
2023/08/01 04:34:31;;;;;;;1.77;1.13;;;;;;;16.92;86.11;99346.78;5158746;28;20413;-84
2023/08/01 04:37:23;;;;;;;0.60;0.60;;;;;;;16.99;85.66;99353.34;5168414;28;20164;-84
2023/08/01 04:40:13;;;;;;;0.50;0.50;;;;;;;16.89;86.36;99354.97;5166358;28;20034;-84
2023/08/01 04:43:04;;;;;;;0.45;0.45;;;;;;;16.75;87.14;99349.84;5162941;28;20129;-84
2023/08/01 04:45:55;;;;;;;1.10;1.05;;;;;;;16.67;87.15;99345.16;5174727;28;20033;-84
2023/08/01 04:48:46;;;;;;;0.57;0.57;;;;;;;16.60;88.08;99347.41;5171587;28;20036;-84
2023/08/01 04:51:36;;;;;;;0.63;0.63;;;;;;;16.64;87.75;99346.22;5171094;28;20038;-84
2023/08/01 04:54:27;;;;;;;0.70;0.70;;;;;;;16.63;88.22;99344.53;5173497;28;20359;-83
2023/08/01 04:57:18;;;;;;;1.25;1.15;;;;;;;16.45;88.25;99359.13;5175254;28;20049;-84
2023/08/01 05:00:10;;;;;;;0.40;0.40;;;;;;;16.54;87.80;99363.75;5169067;28;20027;-84
2023/08/01 05:03:00;;;;;;;0.90;0.90;;;;;;;16.55;87.15;99357.50;5159757;28;20045;-85
2023/08/01 05:05:51;;;;;;;0.50;0.50;;;;;;;16.48;86.71;99359.75;5156701;28;20102;-84
2023/08/01 05:08:42;;;;;;;1.00;0.75;;;;;;;16.36;87.44;99361.50;5159195;28;20053;-85
2023/08/01 05:11:33;;;;;;;0.40;0.40;;;;;;;16.43;87.30;99364.53;5156729;28;20034;-85
2023/08/01 05:14:24;;;;;;;0.60;0.60;;;;;;;16.54;86.72;99358.44;5162248;28;20518;-85
2023/08/01 05:17:14;;;;;;;0.30;0.30;;;;;;;16.40;86.95;99369.22;5169342;28;20269;-85
2023/08/01 05:20:06;;;;;;;1.00;1.00;;;;;;;16.66;86.84;99376.06;5171761;28;20025;-85
2023/08/01 05:23:00;;;;;;;0.57;0.57;;;;;;;16.44;87.11;99384.75;5170001;28;20037;-84
2023/08/01 05:25:50;;;;;;;0.30;0.30;;;;;;;16.61;86.41;99390.63;5169762;28;20037;-84
2023/08/01 05:28:41;;;;;;;1.90;1.67;;;;;;;16.58;86.55;99391.66;5170403;28;20314;-84
2023/08/01 05:31:32;;;;;;;3.38;1.90;;;;;;;16.48;86.93;99401.28;5172067;28;20164;-85
2023/08/01 05:34:23;;;;;;;1.75;1.10;;;;;;;16.57;86.65;99403.22;5174941;28;20037;-83
2023/08/01 05:37:13;;;;;;;0.35;0.35;;;;;;;16.55;86.69;99399.84;5174481;28;20102;-85
2023/08/01 05:40:05;;;;;;;4.80;1.42;;;;;;;16.52;87.11;99405.38;5175245;28;20501;-85
2023/08/01 05:42:56;;;;;;;0.40;0.40;;;;;;;16.60;86.66;99405.66;5157622;28;20239;-85
2023/08/01 05:45:46;;;;;;;0.30;0.30;;;;;;;16.53;87.40;99404.41;5160341;28;20132;-85
2023/08/01 05:48:37;;;;;;;0.82;0.82;;;;;;;16.55;87.63;99407.81;5168784;28;20061;-85
2023/08/01 05:51:28;;;;;;;1.27;0.68;;;;;;;16.52;88.00;99408.00;5165172;28;20077;-86
2023/08/01 05:54:19;;;;;;;0.82;0.82;;;;;;;16.55;87.54;99417.53;5165852;28;20100;-85
2023/08/01 05:57:09;;;;;;;0.35;0.35;;;;;;;16.63;87.52;99416.03;5165567;28;20061;-84
2023/08/01 06:00:01;;;;;;;1.65;0.43;;;;;;;16.56;87.49;99419.22;5154948;28;20030;-85
2023/08/01 06:02:51;;;;;;;0.63;0.63;;;;;;;16.50;88.25;99426.66;5170836;28;20486;-85
2023/08/01 06:05:42;;;;;;;0.30;0.30;;;;;;;16.57;88.30;99421.75;5168834;28;20128;-85
2023/08/01 06:08:33;;;;;;;0.40;0.40;;;;;;;16.67;87.57;99417.47;5172723;28;20057;-85
2023/08/01 06:11:24;;;;;;;3.33;1.85;;;;;;;16.58;87.75;99418.16;5170192;28;20248;-85
2023/08/01 06:14:15;;;;;;;0.30;0.30;;;;;;;16.64;87.69;99412.44;5167636;28;20038;-85
2023/08/01 06:17:06;;;;;;;0.80;0.73;;;;;;;16.71;87.25;99409.31;5169404;28;20034;-85
2023/08/01 06:19:57;;;;;;;0.30;0.30;;;;;;;16.65;88.00;99406.16;5173653;28;20044;-83
2023/08/01 06:22:47;;;;;;;0.77;0.77;;;;;;;16.64;87.95;99404.47;5172585;28;20033;-83
2023/08/01 06:25:38;;;;;;;0.85;0.80;;;;;;;16.72;87.37;99409.19;5170502;28;20038;-83
2023/08/01 06:28:29;;;;;;;12.18;1.30;;;;;;;16.93;86.34;99404.16;5160745;28;20037;-82
2023/08/01 06:31:21;;;;;;;0.57;0.57;;;;;;;16.93;86.33;99411.25;5154765;28;20049;-83
2023/08/01 06:34:11;;;;;;;1.75;0.77;;;;;;;16.95;86.38;99414.63;5164343;28;20461;-83
2023/08/01 06:37:03;;;;;;;0.75;0.60;;;;;;;16.80;86.33;99421.88;5175324;28;20206;-83
2023/08/01 06:39:55;;;;;;;0.35;0.35;;;;;;;16.85;86.39;99425.03;5173850;28;20022;-82
2023/08/01 06:42:45;;;;;;;0.63;0.50;;;;;;;16.93;86.42;99424.50;5192433;28;20030;-83
2023/08/01 06:45:36;;;;;;;6.75;0.98;;;;;;;17.04;86.01;99421.06;5189033;28;20261;-82
2023/08/01 06:48:30;;;;;;;11.70;2.35;;;;;;;17.02;85.77;99426.47;5186075;28;20033;-82
2023/08/01 06:51:21;;;;;;;;;;;;;;;16.98;85.90;99425.84;5201531;28;20046;-82
2023/08/01 06:54:12;;;;;;;0.47;0.47;;;;;;;17.05;85.58;99415.63;5175356;28;19980;-83
2023/08/01 06:57:03;;;;;;;1.42;1.30;;;;;;;16.95;86.07;99425.22;5162295;28;20514;-83
2023/08/01 06:59:53;;;;;;;3.10;1.55;;;;;;;16.99;85.58;99422.22;5161394;28;20113;-83
2023/08/01 07:02:44;;;;;;;0.52;0.52;;;;;;;17.17;85.63;99419.16;5174305;28;20033;-83
2023/08/01 07:05:35;;;;;;;0.65;0.65;;;;;;;17.09;85.26;99426.84;5170464;28;20045;-83
2023/08/01 07:08:26;;;;;;;4.93;0.88;;;;;;;17.16;85.52;99433.38;5171598;28;20569;-82
2023/08/01 07:11:16;;;;;;;0.25;0.25;;;;;;;17.13;85.04;99436.25;5164756;28;20175;-83
2023/08/01 07:14:07;;;;;;;0.40;0.40;;;;;;;17.14;84.22;99440.59;5160621;28;20072;-83
2023/08/01 07:16:58;;;;;;;4.75;1.13;;;;;;;17.10;84.39;99439.13;5172306;28;20113;-83
2023/08/01 07:19:49;;;;;;;0.82;0.82;;;;;;;17.17;83.68;99434.22;5166876;28;20039;-84
2023/08/01 07:22:40;;;;;;;0.47;0.47;;;;;;;17.22;83.46;99440.00;5173951;28;20086;-83
2023/08/01 07:25:31;;;;;;;1.23;1.13;;;;;;;17.27;82.46;99445.84;5176517;28;20129;-83
2023/08/01 07:28:21;;;;;;;0.80;0.80;;;;;;;17.30;82.62;99441.16;5158220;28;20134;-84
2023/08/01 07:31:12;;;;;;;0.68;0.63;;;;;;;17.35;82.62;99443.44;5168289;28;20472;-84
2023/08/01 07:34:03;;;;;;;0.60;0.60;;;;;;;17.40;82.55;99445.72;5169531;28;20085;-84
2023/08/01 07:36:54;;;;;;;0.93;0.90;;;;;;;17.37;82.68;99446.81;5159117;28;20030;-84
2023/08/01 07:39:44;;;;;;;0.75;0.75;;;;;;;17.49;82.34;99455.63;5156702;28;20080;-83
2023/08/01 07:42:35;;;;;;;1.30;1.30;;;;;;;17.49;82.19;99454.78;5183539;28;20029;-83
2023/08/01 07:45:26;;;;;;;0.70;0.70;;;;;;;17.44;81.29;99463.94;5157751;28;20410;-83
2023/08/01 07:48:17;;;;;;;0.68;0.68;;;;;;;17.52;81.09;99462.53;5157320;28;20049;-84
2023/08/01 07:51:08;;;;;;;0.65;0.65;;;;;;;17.45;80.07;99454.19;5167777;28;20027;-83
2023/08/01 07:53:58;;;;;;;0.93;0.93;;;;;;;17.51;79.67;99460.84;5166526;28;20053;-84
2023/08/01 07:56:49;;;;;;;0.70;0.55;;;;;;;17.48;79.26;99459.25;5170367;28;20461;-84
2023/08/01 07:59:40;;;;;;;0.50;0.50;;;;;;;17.51;79.45;99469.63;5169146;28;20453;-83
2023/08/01 08:02:31;;;;;;;0.47;0.43;;;;;;;17.61;79.37;99453.84;5170375;28;20154;-84
2023/08/01 08:05:21;;;;;;;0.77;0.77;;;;;;;17.54;79.21;99456.13;5171374;28;20038;-84
2023/08/01 08:08:12;;;;;;;2.65;1.05;;;;;;;17.53;80.20;99467.72;5159342;28;20045;-83
2023/08/01 08:11:03;;;;;;;1.50;1.40;;;;;;;17.66;80.15;99470.28;5163050;28;20029;-84
2023/08/01 08:13:54;;;;;;;0.43;0.43;;;;;;;17.69;79.91;99471.84;5171156;28;20030;-84
2023/08/01 08:16:45;;;;;;;5.53;0.70;;;;;;;17.54;79.79;99469.41;5163762;28;20025;-83
2023/08/01 08:19:35;;;;;;;0.57;0.52;;;;;;;17.65;79.41;99465.06;5166198;28;20439;-82
2023/08/01 08:22:27;;;;;;;0.52;0.52;;;;;;;17.57;78.73;99471.81;5176130;28;20035;-84
2023/08/01 08:25:18;;;;;;;2.95;1.30;;;;;;;17.73;78.63;99471.47;5170549;28;20564;-83
2023/08/01 08:28:09;;;;;;;0.40;0.40;;;;;;;17.78;79.31;99469.31;5171445;28;20029;-83
2023/08/01 08:31:02;;;;;;;0.45;0.45;;;;;;;17.71;78.60;99472.56;5172611;28;20365;-84
2023/08/01 08:33:52;;;;;;;1.65;1.55;;;;;;;17.73;77.65;99475.94;5173021;28;20026;-84
2023/08/01 08:36:43;;;;;;;0.50;0.50;;;;;;;17.81;77.48;99480.66;5174082;28;20035;-84
2023/08/01 08:39:34;;;;;;;1.85;0.68;;;;;;;17.81;77.87;99478.81;5166553;28;20023;-84
2023/08/01 08:42:25;;;;;;;0.47;0.47;;;;;;;17.91;78.10;99476.31;5173905;28;20026;-83
2023/08/01 08:45:19;;;;;;;0.50;0.50;;;;;;;17.91;78.60;99482.47;5162420;28;20050;-84
2023/08/01 08:48:17;;;;;;;3.30;1.58;;;;;;;17.99;76.98;99478.41;5176376;28;20453;-84
2023/08/01 08:51:09;;;;;;;0.38;0.38;;;;;;;18.07;77.20;99483.94;5169143;28;20275;-83
2023/08/01 08:54:01;;;;;;;0.52;0.52;;;;;;;18.07;76.01;99479.50;5173024;28;20119;-83
2023/08/01 08:56:52;;;;;;;0.40;0.40;;;;;;;18.08;75.57;99486.50;5181880;28;20027;-83
2023/08/01 08:59:43;;;;;;;0.65;0.65;;;;;;;18.19;76.43;99482.13;5195495;28;20030;-83
2023/08/01 09:02:34;;;;;;;0.93;0.93;;;;;;;18.04;76.11;99481.56;5174466;28;20054;-83
2023/08/01 09:05:30;;;;;;;0.40;0.40;;;;;;;18.15;75.91;99496.63;5157474;28;20497;-84
2023/08/01 09:08:24;;;;;;;0.70;0.70;;;;;;;18.17;75.87;99495.53;5167419;28;20529;-82
2023/08/01 09:11:15;;;;;;;1.75;0.73;;;;;;;18.22;75.86;99496.03;5167355;28;20061;-85
2023/08/01 09:14:06;;;;;;;0.50;0.50;;;;;;;18.28;76.16;99499.19;5174157;28;20030;-85
2023/08/01 09:17:06;;;;;;;2.20;1.27;;;;;;;18.21;75.44;99494.34;5168793;28;20025;-84
2023/08/01 09:20:07;;;;;;;0.65;0.65;;;;;;;18.30;74.50;99486.63;5172858;28;20033;-84
2023/08/01 09:22:58;;;;;;;0.40;0.40;;;;;;;18.37;74.32;99491.31;5182259;28;20561;-84
2023/08/01 09:25:49;;;;;;;2.20;0.95;;;;;;;18.30;74.43;99492.78;5160233;28;20061;-84
2023/08/01 09:28:40;;;;;;;0.20;0.20;;;;;;;18.42;74.86;99496.25;5166705;28;20030;-84
2023/08/01 09:31:36;;;;;;;0.50;0.50;;;;;;;18.41;74.73;99499.88;5175254;28;20037;-84
2023/08/01 09:34:27;;;;;;;0.70;0.70;;;;;;;18.30;73.39;99503.38;5168510;28;20038;-84
2023/08/01 09:37:18;;;;;;;0.60;0.60;;;;;;;18.29;73.04;99496.38;5165639;28;20037;-84
2023/08/01 09:40:10;;;;;;;0.60;0.60;;;;;;;18.46;74.16;99497.72;5165576;28;20033;-84
2023/08/01 09:43:01;;;;;;;4.55;1.65;;;;;;;18.50;73.66;99504.47;5170815;28;20041;-84
2023/08/01 09:45:53;;;;;;;0.50;0.50;;;;;;;18.51;73.23;99500.00;5169680;28;20553;-84
2023/08/01 09:48:44;;;;;;;0.80;0.77;;;;;;;18.66;72.77;99497.91;5173063;28;20400;-84
2023/08/01 09:51:46;;;;;;;0.45;0.45;;;;;;;18.77;72.74;99492.59;5174123;28;20493;-84
2023/08/01 09:54:37;;;;;;;0.30;0.30;;;;;;;18.87;72.33;99487.38;5169034;28;20040;-84
2023/08/01 09:57:30;;;;;;;0.25;0.25;;;;;;;18.96;71.80;99483.16;5173712;28;20033;-84
2023/08/01 10:00:21;;;;;;;0.65;0.50;;;;;;;19.02;71.47;99493.28;5170697;28;20054;-84
2023/08/01 10:03:12;;;;;;;0.47;0.47;;;;;;;18.99;71.30;99499.69;5170505;28;20125;-84
2023/08/01 10:06:03;;;;;;;0.32;0.32;;;;;;;19.01;70.42;99496.91;5170986;28;20034;-85
2023/08/01 10:08:54;;;;;;;0.50;0.50;;;;;;;18.99;70.89;99499.69;5157052;28;20034;-83
2023/08/01 10:11:45;;;;;;;0.35;0.35;;;;;;;19.09;71.21;99498.94;5158772;28;20040;-83
2023/08/01 10:14:38;;;;;;;0.40;0.40;;;;;;;19.17;71.69;99485.84;5171409;28;20101;-84
2023/08/01 10:17:30;;;;;;;2.13;1.00;;;;;;;19.20;70.39;99490.91;5168742;28;20109;-84
2023/08/01 10:20:22;;;;;;;1.73;0.68;;;;;;;19.22;69.19;99488.09;5170586;28;20573;-84
2023/08/01 10:23:13;;;;;;;0.47;0.47;;;;;;;19.23;68.74;99487.13;5168559;28;20030;-84
2023/08/01 10:26:08;;;;;;;0.98;0.77;;;;;;;19.26;69.03;99486.91;5180967;28;20037;-84
2023/08/01 10:29:02;;;;;;;0.22;0.22;;;;;;;19.46;67.93;99496.69;5157012;28;20293;-84
2023/08/01 10:31:55;;;;;;;;;;;;;;;19.54;67.42;99493.41;5168798;28;20045;-84
2023/08/01 10:34:52;;;;;;;0.53;0.53;;;;;;;19.56;68.18;99486.13;5157368;28;19928;-84
2023/08/01 10:37:44;;;;;;;0.20;0.20;;;;;;;19.63;65.76;99486.44;5182991;28;20273;-84
2023/08/01 10:40:37;;;;;;;0.50;0.50;;;;;;;19.65;66.68;99495.16;5169217;28;20038;-85
2023/08/01 10:43:27;;;;;;;0.45;0.45;;;;;;;19.64;66.54;99489.00;5167389;28;20196;-84
2023/08/01 10:46:18;;;;;;;4.18;1.05;;;;;;;19.67;66.47;99491.38;5165929;28;20117;-83
2023/08/01 10:49:09;;;;;;;0.52;0.52;;;;;;;19.65;66.12;99496.00;5166361;28;20037;-84
2023/08/01 10:52:00;;;;;;;0.30;0.30;;;;;;;19.81;66.62;99497.34;5169911;28;20114;-84
2023/08/01 10:55:07;;;;;;;0.52;0.52;;;;;;;19.87;64.22;99488.03;5173785;28;20615;-84
2023/08/01 10:57:58;;;;;;;0.50;0.50;;;;;;;19.86;65.27;99499.66;5163999;28;20030;-85
2023/08/01 11:00:57;;;;;;;0.57;0.57;;;;;;;19.91;64.47;99500.09;5165583;28;20553;-84
2023/08/01 11:03:48;;;;;;;0.22;0.22;;;;;;;19.98;64.47;99495.94;5155558;28;20401;-84
2023/08/01 11:06:47;;;;;;;0.28;0.28;;;;;;;19.95;64.68;99496.22;5167451;28;20065;-84
2023/08/01 11:09:38;;;;;;;0.80;0.80;;;;;;;19.94;63.35;99505.16;5168815;28;20038;-85
2023/08/01 11:12:30;;;;;;;0.35;0.35;;;;;;;20.03;64.77;99501.72;5152666;28;20214;-85
2023/08/01 11:15:21;;;;;;;0.38;0.38;;;;;;;20.00;62.66;99507.28;5167092;28;20037;-84
2023/08/01 11:18:12;;;;;;;0.30;0.30;;;;;;;19.97;62.76;99510.22;5164545;28;20038;-84
2023/08/01 11:21:03;;;;;;;0.30;0.30;;;;;;;20.04;62.98;99511.38;5163623;28;20042;-85
2023/08/01 11:23:54;;;;;;;2.30;0.95;;;;;;;20.24;64.28;99506.13;5174041;28;20087;-84
2023/08/01 11:26:49;;;;;;;3.20;0.73;;;;;;;20.42;62.70;99515.19;5173010;28;20080;-84
2023/08/01 11:29:40;;;;;;;0.88;0.88;;;;;;;20.42;61.02;99504.53;5170589;28;20061;-83
2023/08/01 11:32:37;;;;;;;1.00;1.00;;;;;;;20.57;62.30;99528.13;5158045;28;20532;-85
2023/08/01 11:35:27;;;;;;;0.30;0.30;;;;;;;20.53;62.43;99538.22;5156468;28;20049;-85
2023/08/01 11:38:18;;;;;;;0.20;0.20;;;;;;;20.11;63.55;99528.53;5159732;28;20034;-84
2023/08/01 11:41:09;;;;;;;0.40;0.40;;;;;;;20.16;63.22;99545.91;5171971;28;20038;-85
2023/08/01 11:44:04;;;;;;;0.20;0.20;;;;;;;20.26;64.22;99554.78;5156883;28;20434;-84
2023/08/01 11:46:55;;;;;;;2.15;0.63;;;;;;;19.91;65.24;99553.34;5159045;28;20034;-85
2023/08/01 11:49:48;;;;;;;0.30;0.30;;;;;;;20.04;65.47;99543.31;5167406;28;20053;-85
2023/08/01 11:52:39;;;;;;;0.40;0.40;;;;;;;19.96;65.85;99543.13;5164212;28;20062;-85
2023/08/01 11:55:35;;;;;;;0.40;0.40;;;;;;;19.73;66.16;99545.91;5170730;28;20116;-85
2023/08/01 11:58:33;;;;;;;0.30;0.30;;;;;;;19.71;65.91;99547.84;5172293;28;20498;-84
2023/08/01 12:01:24;;;;;;;0.30;0.30;;;;;;;19.85;66.12;99546.72;5167279;28;20063;-85
2023/08/01 12:04:26;;;;;;;0.60;0.60;;;;;;;20.06;65.96;99560.00;5173144;28;20513;-85
2023/08/01 12:07:16;;;;;;;0.25;0.25;;;;;;;19.99;65.71;99574.81;5170145;28;20553;-85
2023/08/01 12:10:08;;;;;;;0.60;0.60;;;;;;;19.60;67.24;99563.88;5171274;28;20037;-85
2023/08/01 12:12:58;;;;;;;6.65;0.73;;;;;;;19.48;68.67;99574.56;5173579;28;20038;-85
2023/08/01 12:15:52;;;;;;;0.50;0.50;;;;;;;19.42;68.63;99561.78;5156392;28;20116;-83
2023/08/01 12:18:44;;;;;;;6.93;1.08;;;;;;;19.41;68.31;99556.59;5177910;28;20413;-85
2023/08/01 12:21:35;;;;;;;0.40;0.40;;;;;;;19.61;67.58;99557.59;5169419;28;20040;-86
2023/08/01 12:24:26;;;;;;;0.68;0.68;;;;;;;19.48;68.28;99544.47;5163345;28;20174;-85
2023/08/01 12:27:17;;;;;;;1.17;1.00;;;;;;;19.72;67.75;99536.22;5171962;28;20032;-84
2023/08/01 12:30:08;;;;;;;0.30;0.30;;;;;;;19.79;67.32;99548.03;5165051;28;20415;-85
2023/08/01 12:33:00;;;;;;;0.40;0.40;;;;;;;19.55;68.27;99550.97;5157987;28;20115;-84
2023/08/01 12:35:51;;;;;;;0.30;0.30;;;;;;;19.60;67.32;99566.53;5156475;28;20061;-85
2023/08/01 12:38:42;;;;;;;0.40;0.40;;;;;;;19.82;67.67;99555.78;5176638;28;20061;-86
2023/08/01 12:41:34;;;;;;;0.50;0.50;;;;;;;19.90;68.79;99570.28;5180065;28;20033;-83
2023/08/01 12:44:24;;;;;;;0.30;0.30;;;;;;;19.63;73.53;99568.94;5177733;28;20484;-85
2023/08/01 12:47:15;;;;;;;0.63;0.47;;;;;;;19.66;72.78;99571.34;5158373;28;20112;-85
2023/08/01 12:50:07;;;;;;;0.47;0.47;;;;;;;19.80;72.59;99579.00;5158253;28;20538;-85
2023/08/01 12:52:57;;;;;;;0.50;0.50;;;;;;;19.89;71.42;99579.22;5175473;28;20065;-85
2023/08/01 12:55:51;;;;;;;0.50;0.50;;;;;;;19.66;72.98;99572.19;5172709;28;20057;-85
2023/08/01 12:58:41;;;;;;;0.63;0.63;;;;;;;19.81;73.51;99574.53;5172570;28;20037;-85
2023/08/01 13:01:32;;;;;;;0.88;0.75;;;;;;;19.67;74.92;99575.69;5175261;28;20034;-84
2023/08/01 13:04:23;;;;;;;0.30;0.30;;;;;;;19.67;75.48;99581.84;5184447;28;20487;-84
2023/08/01 13:07:14;;;;;;;0.68;0.68;;;;;;;19.67;74.82;99584.50;5181891;28;20046;-84
2023/08/01 13:10:05;;;;;;;0.63;0.45;;;;;;;19.75;74.27;99578.56;5163339;28;20064;-85
2023/08/01 13:12:56;;;;;;;1.40;1.30;;;;;;;19.88;74.07;99575.75;5171530;28;20156;-84
2023/08/01 13:15:46;;;;;;;0.40;0.40;;;;;;;19.93;73.92;99576.19;5178766;28;20761;-84
2023/08/01 13:18:43;;;;;;;0.30;0.30;;;;;;;20.00;73.82;99578.34;5174200;28;20050;-82
2023/08/01 13:21:34;;;;;;;0.47;0.47;;;;;;;20.04;74.65;99572.59;5184813;28;20150;-83
2023/08/01 13:24:24;;;;;;;0.30;0.30;;;;;;;20.26;75.06;99573.44;5172150;28;20065;-84
2023/08/01 13:27:15;;;;;;;0.47;0.47;;;;;;;20.40;76.05;99569.59;5176706;28;20041;-84